Time;durP1;ratioP1;P1;durP2;ratioP2;P2;SDS_P1;SDS_P2;PMS_P1;PMS_P2;Temp;Humidity;BMP_temperature;BMP_pressure;BME280_temperature;BME280_humidity;BME280_pressure;Samples;Min_cycle;Max_cycle;Signal;HPM_P1;HPM_P2
2021/01/13 00:02:21;;;;;;;;;;;1.70;99.90;;;;;;5055020;28;19913;-83
2021/01/13 00:04:47;;;;;;;;;;;1.70;99.90;;;;;;5073061;28;19919;-83
2021/01/13 00:07:13;;;;;;;;;;;1.70;99.90;;;;;;5072126;28;19920;-83
2021/01/13 00:09:38;;;;;;;;;;;1.70;99.90;;;;;;5054931;28;20368;-83
2021/01/13 00:12:04;;;;;;;;;;;1.70;99.90;;;;;;5071073;28;19913;-84
2021/01/13 00:14:29;;;;;;;;;;;1.70;99.90;;;;;;5072791;28;19912;-81
2021/01/13 00:16:55;;;;;;;;;;;1.70;99.90;;;;;;5072083;28;20353;-81
2021/01/13 00:19:20;;;;;;;;;;;1.70;99.90;;;;;;5073473;28;20296;-81
2021/01/13 00:21:49;;;;;;;;;;;1.70;99.90;;;;;;5072734;28;20330;-81
2021/01/13 00:24:15;;;;;;;;;;;1.70;99.90;;;;;;5055038;28;19915;-81
2021/01/13 00:26:41;;;;;;;;;;;1.70;99.90;;;;;;5065488;28;19938;-81
2021/01/13 00:29:07;;;;;;;;;;;1.70;99.90;;;;;;5054391;28;20424;-81
2021/01/13 00:31:32;;;;;;;;;;;1.70;99.90;;;;;;5072689;28;19912;-81
2021/01/13 00:33:57;;;;;;;;;;;1.60;99.90;;;;;;5073261;28;19956;-81
2021/01/13 00:36:23;;;;;;;;;;;1.60;99.90;;;;;;5055676;28;19913;-81
2021/01/13 00:38:49;;;;;;;;;;;1.60;99.90;;;;;;5077184;28;19917;-81
2021/01/13 00:41:15;;;;;;;;;;;1.60;99.90;;;;;;5076771;28;20113;-81
2021/01/13 00:43:40;;;;;;;;;;;1.60;99.90;;;;;;5077102;28;19913;-81
2021/01/13 00:46:06;;;;;;;;;;;1.60;99.90;;;;;;5075045;28;19924;-81
2021/01/13 00:48:31;;;;;;;;;;;1.60;99.90;;;;;;5076276;28;19912;-81
2021/01/13 00:50:57;;;;;;;;;;;1.60;99.90;;;;;;5074565;28;19912;-81
2021/01/13 00:53:23;;;;;;;;;;;1.60;99.90;;;;;;5058971;28;19908;-81
2021/01/13 00:55:48;;;;;;;;;;;1.50;99.90;;;;;;5057758;28;19912;-81
2021/01/13 00:58:13;;;;;;;;;;;1.50;99.90;;;;;;5076706;28;19908;-81
2021/01/13 01:00:39;;;;;;;;;;;1.50;99.90;;;;;;5075521;28;19913;-81
2021/01/13 01:03:04;;;;;;;;;;;1.50;99.90;;;;;;5075453;28;19916;-81
2021/01/13 01:05:30;;;;;;;;;;;1.50;99.90;;;;;;5075004;28;20284;-81
2021/01/13 01:07:55;;;;;;;;;;;1.50;99.90;;;;;;5075100;28;19927;-81
2021/01/13 01:10:31;;;;;;;;;;;1.50;99.90;;;;;;5075486;28;19951;-81
2021/01/13 01:12:57;;;;;;;;;;;1.50;99.90;;;;;;5076049;28;19935;-81
2021/01/13 01:15:23;;;;;;;;;;;1.50;99.90;;;;;;5057385;28;19912;-81
2021/01/13 01:17:48;;;;;;;;;;;1.50;99.90;;;;;;5075961;28;19919;-81
2021/01/13 01:20:14;;;;;;;;;;;1.60;99.90;;;;;;5074162;28;19916;-81
2021/01/13 01:22:53;;;;;;;;;;;1.60;99.90;;;;;;5075892;28;20054;-81
2021/01/13 01:25:19;;;;;;;;;;;1.70;99.90;;;;;;5073844;28;19915;-80
2021/01/13 01:27:46;;;;;;;;;;;1.80;99.90;;;;;;5075809;28;19920;-80
2021/01/13 01:30:12;;;;;;;;;;;1.80;99.90;;;;;;5057378;28;19908;-80
2021/01/13 01:32:37;;;;;;;;;;;1.90;99.90;;;;;;5075568;28;19920;-81
2021/01/13 01:35:03;;;;;;;;;;;2.00;99.90;;;;;;5057272;28;19934;-81
2021/01/13 01:37:32;;;;;;;;;;;2.00;99.90;;;;;;5073280;28;19916;-81
2021/01/13 01:39:57;;;;;;;;;;;2.00;99.90;;;;;;5075953;28;20438;-81
2021/01/13 01:42:23;;;;;;;;;;;2.00;99.90;;;;;;5072625;28;19913;-81
2021/01/13 01:44:48;;;;;;;;;;;2.00;99.90;;;;;;5075370;28;19912;-80
2021/01/13 01:47:14;;;;;;;;;;;1.90;99.90;;;;;;5074660;28;19920;-80
2021/01/13 01:49:43;;;;;;;;;;;1.90;99.90;;;;;;5075349;28;19908;-81
2021/01/13 01:52:16;;;;;;;;;;;1.80;99.90;;;;;;5075234;28;19912;-81
2021/01/13 01:54:48;;;;;;;;;;;1.80;99.90;;;;;;5075855;28;19915;-81
2021/01/13 01:57:16;;;;;;;;;;;1.80;99.90;;;;;;5073928;28;19955;-81
2021/01/13 01:59:45;;;;;;;;;;;1.80;99.90;;;;;;5077156;28;19909;-81
2021/01/13 02:02:13;;;;;;;;;;;1.90;99.90;;;;;;5077307;28;19919;-81
2021/01/13 02:04:42;;;;;;;;;;;1.90;99.90;;;;;;5059860;28;19908;-81
2021/01/13 02:07:07;;;;;;;;;;;1.90;99.90;;;;;;5058822;28;19924;-81
2021/01/13 02:09:33;;;;;;;;;;;2.00;99.90;;;;;;5078688;28;19955;-81
2021/01/13 02:11:59;;;;;;;;;;;2.00;99.90;;;;;;5077755;28;19947;-81
2021/01/13 02:14:26;;;;;;;;;;;2.00;99.90;;;;;;5077850;28;20326;-81
2021/01/13 02:16:52;;;;;;;;;;;2.00;99.90;;;;;;5077630;28;19954;-81
2021/01/13 02:19:37;;;;;;;;;;;2.00;99.90;;;;;;5077932;28;19912;-81
2021/01/13 02:22:03;;;;;;;;;;;2.10;99.90;;;;;;5076690;28;20384;-81
2021/01/13 02:24:44;;;;;;;;;;;2.10;99.90;;;;;;5058675;28;20369;-81
2021/01/13 02:27:28;;;;;;;;;;;2.10;99.90;;;;;;5058858;28;19917;-81
2021/01/13 02:29:58;;;;;;;;;;;2.20;99.90;;;;;;5076908;28;19927;-81
2021/01/13 02:32:27;;;;;;;;;;;2.20;99.90;;;;;;5058766;28;19913;-81
2021/01/13 02:35:09;;;;;;;;;;;2.20;99.90;;;;;;5077893;28;19909;-81
2021/01/13 02:37:35;;;;;;;;;;;2.20;99.90;;;;;;5059005;28;19970;-81
2021/01/13 02:40:07;;;;;;;;;;;2.20;99.90;;;;;;5077690;28;19920;-81
2021/01/13 02:42:36;;;;;;;;;;;2.20;99.90;;;;;;5075550;28;19912;-81
2021/01/13 02:45:02;;;;;;;;;;;2.20;99.90;;;;;;5078093;28;19924;-81
2021/01/13 02:47:33;;;;;;;;;;;2.10;99.90;;;;;;5075830;28;19916;-81
2021/01/13 02:49:58;;;;;;;;;;;2.10;99.90;;;;;;5072688;28;19912;-81
2021/01/13 02:52:25;;;;;;;;;;;2.10;99.90;;;;;;5073729;28;19917;-81
2021/01/13 02:55:02;;;;;;;;;;;2.00;99.90;;;;;;5073362;28;19908;-81
2021/01/13 02:57:28;;;;;;;;;;;2.00;99.90;;;;;;5074275;28;19912;-81
2021/01/13 02:59:57;;;;;;;;;;;2.00;99.90;;;;;;5072834;28;20367;-81
2021/01/13 03:02:33;;;;;;;;;;;2.00;99.90;;;;;;5072064;28;19917;-81
2021/01/13 03:04:59;;;;;;;;;;;2.00;99.90;;;;;;5060038;28;19919;-81
2021/01/13 03:07:25;;;;;;;;;;;2.00;99.90;;;;;;5072802;28;19912;-81
2021/01/13 03:09:56;;;;;;;;;;;2.10;99.90;;;;;;5055793;28;20263;-81
2021/01/13 03:12:24;;;;;;;;;;;2.10;99.90;;;;;;5056653;28;19963;-81
2021/01/13 03:14:50;;;;;;;;;;;2.10;99.90;;;;;;5072732;28;20003;-81
2021/01/13 03:17:34;;;;;;;;;;;2.10;99.90;;;;;;5073998;28;20434;-81
2021/01/13 03:19:59;;;;;;;;;;;2.10;99.90;;;;;;5054660;28;20337;-81
2021/01/13 03:22:28;;;;;;;;;;;2.10;99.90;;;;;;5053908;28;19918;-81
2021/01/13 03:24:55;;;;;;;;;;;2.10;99.90;;;;;;5076530;28;20376;-81
2021/01/13 03:27:22;;;;;;;;;;;2.20;99.90;;;;;;5074964;28;19916;-81
2021/01/13 03:29:49;;;;;;;;;;;2.10;99.90;;;;;;5057995;28;20292;-81
2021/01/13 03:32:18;;;;;;;;;;;2.10;99.90;;;;;;5076447;28;19923;-81
2021/01/13 03:34:51;;;;;;;;;;;2.10;99.90;;;;;;5076083;28;19912;-81
2021/01/13 03:37:24;;;;;;;;;;;2.10;99.90;;;;;;5076790;28;19964;-81
2021/01/13 03:39:51;;;;;;;;;;;2.10;99.90;;;;;;5075174;28;20448;-81
2021/01/13 03:42:17;;;;;;;;;;;2.10;99.90;;;;;;5076531;28;19935;-81
2021/01/13 03:44:43;;;;;;;;;;;2.10;99.90;;;;;;5057742;28;19909;-81
2021/01/13 03:47:27;;;;;;;;;;;2.10;99.90;;;;;;5075582;28;19924;-81
2021/01/13 03:50:11;;;;;;;;;;;2.10;99.90;;;;;;5076123;28;19915;-81
2021/01/13 03:52:45;;;;;;;;;;;2.20;99.90;;;;;;5054488;28;19919;-81
2021/01/13 03:55:11;;;;;;;;;;;2.20;99.90;;;;;;5074766;28;19935;-81
2021/01/13 03:57:56;;;;;;;;;;;2.20;99.90;;;;;;5076641;28;19979;-81
2021/01/13 04:00:22;;;;;;;;;;;2.20;99.90;;;;;;5057480;28;19927;-81
2021/01/13 04:03:02;;;;;;;;;;;2.20;99.90;;;;;;5076090;28;19995;-81
2021/01/13 04:05:29;;;;;;;;;;;2.20;99.90;;;;;;5066002;28;19923;-81
2021/01/13 04:07:56;;;;;;;;;;;2.20;99.90;;;;;;5076020;28;19955;-81
2021/01/13 04:10:22;;;;;;;;;;;2.20;99.90;;;;;;5076491;28;20368;-81
2021/01/13 04:12:51;;;;;;;;;;;2.20;99.90;;;;;;5077983;28;19920;-81
2021/01/13 04:15:19;;;;;;;;;;;2.10;99.90;;;;;;5080006;28;19908;-81
2021/01/13 04:17:48;;;;;;;;;;;2.10;99.90;;;;;;5060857;28;20358;-81
2021/01/13 04:20:14;;;;;;;;;;;2.10;99.90;;;;;;5080426;28;19909;-81
2021/01/13 04:22:39;;;;;;;;;;;2.10;99.90;;;;;;5079479;28;19913;-81
2021/01/13 04:25:05;;;;;;;;;;;2.10;99.90;;;;;;5079934;28;19908;-81
2021/01/13 04:27:30;;;;;;;;;;;2.10;99.90;;;;;;5080222;28;19916;-81
2021/01/13 04:29:56;;;;;;;;;;;2.10;99.90;;;;;;5077707;28;19912;-81
2021/01/13 04:32:21;;;;;;;;;;;2.10;99.90;;;;;;5066518;28;19913;-81
2021/01/13 04:34:47;;;;;;;;;;;2.10;99.90;;;;;;5078669;28;20356;-81
2021/01/13 04:37:13;;;;;;;;;;;2.10;99.90;;;;;;5079418;28;19912;-81
2021/01/13 04:39:39;;;;;;;;;;;2.10;99.90;;;;;;5092391;22;19925;-81
2021/01/13 04:42:09;;;;;;;;;;;2.10;99.90;;;;;;5069329;28;19917;-80
2021/01/13 04:44:51;;;;;;;;;;;2.10;99.90;;;;;;5068355;28;19967;-82
2021/01/13 04:47:17;;;;;;;;;;;2.10;99.90;;;;;;5070300;28;19921;-81
2021/01/13 04:49:43;;;;;;;;;;;2.10;99.90;;;;;;5053577;28;19913;-81
2021/01/13 04:52:18;;;;;;;;;;;2.10;99.90;;;;;;5068786;28;19923;-81
2021/01/13 04:54:45;;;;;;;;;;;2.10;99.90;;;;;;5053844;28;19976;-82
2021/01/13 04:57:40;;;;;;;;;;;2.10;99.90;;;;;;5054604;28;19944;-81
2021/01/13 05:00:11;;;;;;;;;;;2.10;99.90;;;;;;5050673;28;19948;-81
2021/01/13 05:02:42;;;;;;;;;;;2.10;99.90;;;;;;5045603;28;19981;-82
2021/01/13 05:05:18;;;;;;;;;;;2.10;99.90;;;;;;5050197;28;20015;-81
2021/01/13 05:07:43;;;;;;;;;;;2.10;99.90;;;;;;5044290;28;19941;-81
2021/01/13 05:10:09;;;;;;;;;;;2.00;99.90;;;;;;5051284;28;19959;-82
2021/01/13 05:12:48;;;;;;;;;;;2.00;99.90;;;;;;5052533;28;20266;-81
2021/01/13 05:15:18;;;;;;;;;;;2.00;99.90;;;;;;5050139;28;19916;-80
2021/01/13 05:17:57;;;;;;;;;;;2.00;99.90;;;;;;5052767;28;20400;-81
2021/01/13 05:20:24;;;;;;;;;;;2.00;99.90;;;;;;5050508;28;19909;-81
2021/01/13 05:22:53;;;;;;;;;;;2.00;99.90;;;;;;5052559;28;19917;-81
2021/01/13 05:25:34;;;;;;;;;;;2.00;99.90;;;;;;5050301;28;19913;-82
2021/01/13 05:28:00;;;;;;;;;;;1.90;99.90;;;;;;5053007;28;19929;-81
2021/01/13 05:30:30;;;;;;;;;;;1.90;99.90;;;;;;5049869;28;19959;-82
2021/01/13 05:32:55;;;;;;;;;;;1.90;99.90;;;;;;5054205;28;19968;-81
2021/01/13 05:35:27;;;;;;;;;;;1.90;99.90;;;;;;5050905;28;19971;-81
2021/01/13 05:38:06;;;;;;;;;;;2.00;99.90;;;;;;5054115;28;19913;-82
2021/01/13 05:40:32;;;;;;;;;;;2.00;99.90;;;;;;5054842;28;19917;-82
2021/01/13 05:42:59;;;;;;;;;;;2.00;99.90;;;;;;5055311;28;19924;-81
2021/01/13 05:45:26;;;;;;;;;;;2.00;99.90;;;;;;5051557;28;19921;-82
2021/01/13 05:47:53;;;;;;;;;;;2.10;99.90;;;;;;5048687;28;20468;-82
2021/01/13 05:50:22;;;;;;;;;;;2.10;99.90;;;;;;5068940;28;19913;-82
2021/01/13 05:52:49;;;;;;;;;;;2.10;99.90;;;;;;5061693;28;19917;-82
2021/01/13 05:55:18;;;;;;;;;;;2.10;99.90;;;;;;5064469;28;19913;-80
2021/01/13 05:57:53;;;;;;;;;;;2.10;99.90;;;;;;5043617;28;19920;-80
2021/01/13 06:00:18;;;;;;;;;;;2.10;99.90;;;;;;5059634;28;19917;-81
2021/01/13 06:02:46;;;;;;;;;;;2.10;99.90;;;;;;5044556;28;19940;-80
2021/01/13 06:05:12;;;;;;;;;;;2.10;99.90;;;;;;5043867;28;19971;-80
2021/01/13 06:07:40;;;;;;;;;;;2.10;99.90;;;;;;5037326;28;19925;-80
2021/01/13 06:10:06;;;;;;;;;;;2.10;99.90;;;;;;5056223;28;19912;-81
2021/01/13 06:12:34;;;;;;;;;;;2.00;99.90;;;;;;5043758;28;19913;-81
2021/01/13 06:14:59;;;;;;;;;;;2.00;99.90;;;;;;5042370;28;19939;-81
2021/01/13 06:17:27;;;;;;;;;;;1.90;99.90;;;;;;5040796;28;19913;-80
2021/01/13 06:19:54;;;;;;;;;;;1.90;99.90;;;;;;5046434;28;19913;-80
2021/01/13 06:22:32;;;;;;;;;;;1.90;99.90;;;;;;5042960;28;19917;-80
2021/01/13 06:24:58;;;;;;;;;;;1.90;99.90;;;;;;5047725;28;19913;-80
2021/01/13 06:27:37;;;;;;;;;;;1.90;99.90;;;;;;5042829;28;20582;-80
2021/01/13 06:30:03;;;;;;;;;;;1.90;99.90;;;;;;5042899;28;20403;-81
2021/01/13 06:32:43;;;;;;;;;;;1.90;99.90;;;;;;5053237;28;19951;-81
2021/01/13 06:35:27;;;;;;;;;;;1.90;99.90;;;;;;5040683;28;19914;-80
2021/01/13 06:37:53;;;;;;;;;;;1.80;99.90;;;;;;5042838;28;19913;-80
2021/01/13 06:40:20;;;;;;;;;;;1.80;99.90;;;;;;5039004;28;19923;-80
2021/01/13 06:42:45;;;;;;;;;;;1.80;99.90;;;;;;5041020;28;19913;-80
2021/01/13 06:45:11;;;;;;;;;;;1.80;99.90;;;;;;5043786;28;19924;-82
2021/01/13 06:47:52;;;;;;;;;;;1.70;99.90;;;;;;5046588;28;20139;-81
2021/01/13 06:50:29;;;;;;;;;;;1.70;99.90;;;;;;5046592;28;19910;-81
2021/01/13 06:52:56;;;;;;;;;;;1.70;99.90;;;;;;5044902;28;20288;-81
2021/01/13 06:55:30;;;;;;;;;;;1.70;99.90;;;;;;5040237;28;19910;-80
2021/01/13 06:57:56;;;;;;;;;;;1.70;99.90;;;;;;5040756;28;20305;-80
2021/01/13 07:00:21;;;;;;;;;;;1.70;99.90;;;;;;5040116;28;19927;-80
2021/01/13 07:02:47;;;;;;;;;;;1.60;99.90;;;;;;5030089;28;20012;-79
2021/01/13 07:05:31;;;;;;;;;;;1.60;99.90;;;;;;5038202;28;19920;-80
2021/01/13 07:07:56;;;;;;;;;;;1.60;99.90;;;;;;5026701;28;20340;-81
2021/01/13 07:10:22;;;;;;;;;;;1.60;99.90;;;;;;5043224;28;19914;-81
2021/01/13 07:12:49;;;;;;;;;;;1.60;99.90;;;;;;5043557;28;19913;-84
2021/01/13 07:15:14;;;;;;;;;;;1.60;99.90;;;;;;5040393;28;19909;-84
2021/01/13 07:17:40;;;;;;;;;;;1.70;99.90;;;;;;5039788;28;19919;-83
2021/01/13 07:20:05;;;;;;;;;;;1.80;99.90;;;;;;5042381;28;19913;-82
2021/01/13 07:22:31;;;;;;;;;;;1.90;99.90;;;;;;5043958;28;20374;-83
2021/01/13 07:24:56;;;;;;;;;;;1.90;99.90;;;;;;5043029;28;19917;-84
2021/01/13 07:27:22;;;;;;;;;;;2.00;99.90;;;;;;5040884;28;19993;-83
2021/01/13 07:29:48;;;;;;;;;;;2.00;99.90;;;;;;5041638;28;19921;-83
2021/01/13 07:32:19;;;;;;;;;;;2.00;99.90;;;;;;5053167;28;20290;-83
2021/01/13 07:34:45;;;;;;;;;;;2.00;99.90;;;;;;5040501;28;20285;-84
2021/01/13 07:37:16;;;;;;;;;;;2.00;99.90;;;;;;5048787;28;19913;-83
2021/01/13 07:39:44;;;;;;;;;;;2.00;99.90;;;;;;5040002;28;19917;-83
2021/01/13 07:42:11;;;;;;;;;;;2.10;99.90;;;;;;5038315;28;19917;-83
2021/01/13 07:44:40;;;;;;;;;;;2.10;99.90;;;;;;5037970;28;19913;-82
2021/01/13 07:47:20;;;;;;;;;;;2.10;99.90;;;;;;5039720;28;19917;-83
2021/01/13 07:49:53;;;;;;;;;;;2.10;99.90;;;;;;5047997;28;19963;-84
2021/01/13 07:52:22;;;;;;;;;;;2.20;99.90;;;;;;5041537;28;19965;-84
2021/01/13 07:54:48;;;;;;;;;;;2.20;99.90;;;;;;5059234;28;19913;-83
2021/01/13 07:57:20;;;;;;;;;;;2.20;99.90;;;;;;5044171;28;20000;-83
2021/01/13 08:00:03;;;;;;;;;;;2.30;99.90;;;;;;5043591;28;20400;-83
2021/01/13 08:02:29;;;;;;;;;;;2.30;99.90;;;;;;5045886;28;19916;-83
2021/01/13 08:05:12;;;;;;;;;;;2.40;99.90;;;;;;5054998;28;19920;-84
2021/01/13 08:07:39;;;;;;;;;;;2.50;99.90;;;;;;5043689;28;19941;-84
2021/01/13 08:10:05;;;;;;;;;;;2.50;99.90;;;;;;5043731;28;19914;-84
2021/01/13 08:12:31;;;;;;;;;;;2.60;99.90;;;;;;5044212;28;19936;-84
2021/01/13 08:15:14;;;;;;;;;;;2.60;99.90;;;;;;5053386;28;19917;-83
2021/01/13 08:17:50;;;;;;;;;;;2.70;99.90;;;;;;5048683;28;19920;-83
2021/01/13 08:20:34;;;;;;;;;;;2.70;99.90;;;;;;5034000;28;20396;-84
2021/01/13 08:23:10;;;;;;;;;;;2.80;99.90;;;;;;5053681;28;19924;-83
2021/01/13 08:25:42;;;;;;;;;;;2.90;99.90;;;;;;5046838;28;19919;-83
2021/01/13 08:28:12;;;;;;;;;;;3.00;99.90;;;;;;5040938;28;19956;-83
2021/01/13 08:30:39;;;;;;;;;;;3.20;99.90;;;;;;5046521;28;19917;-82
2021/01/13 08:33:09;;;;;;;;;;;3.30;99.90;;;;;;5036535;28;19919;-82
2021/01/13 08:35:35;;;;;;;;;;;3.40;99.90;;;;;;5050767;28;19948;-82
2021/01/13 08:38:08;;;;;;;;;;;3.60;99.90;;;;;;5037262;28;19940;-82
2021/01/13 08:40:34;;;;;;;;;;;3.80;99.90;;;;;;5018373;28;19952;-83
2021/01/13 08:43:07;;;;;;;;;;;4.00;99.90;;;;;;5022664;28;19921;-84
2021/01/13 08:45:34;;;;;;;;;;;4.30;99.90;;;;;;5025857;28;20004;-83
2021/01/13 08:48:07;;;;;;;;;;;4.50;99.90;;;;;;5017963;28;19956;-83
2021/01/13 08:50:32;;;;;;;;;;;4.50;99.90;;;;;;5037558;28;19924;-82
2021/01/13 08:53:01;;;;;;;;;;;4.60;99.90;;;;;;5036563;28;19913;-82
2021/01/13 08:55:26;;;;;;;;;;;4.60;99.90;;;;;;5037360;28;20282;-83
2021/01/13 08:57:52;;;;;;;;;;;4.70;99.90;;;;;;5037657;28;19920;-84
2021/01/13 09:00:18;;;;;;;;;;;5.00;99.90;;;;;;5037016;28;19909;-83
2021/01/13 09:03:13;;;;;;;;;;;5.50;99.90;;;;;;5030293;28;20409;-84
2021/01/13 09:05:40;;;;;;;;;;;5.90;99.90;;;;;;5026362;28;19917;-84
2021/01/13 09:08:06;;;;;;;;;;;6.30;99.90;;;;;;5036195;28;19941;-82
2021/01/13 09:10:45;;;;;;;;;;;6.60;99.90;;;;;;5037746;28;19983;-85
2021/01/13 09:13:26;;;;;;;;;;;7.00;99.90;;;;;;5037338;28;19921;-83
2021/01/13 09:15:53;;;;;;;;;;;7.10;99.90;;;;;;5034590;28;20412;-83
2021/01/13 09:18:21;;;;;;;;;;;7.10;99.90;;;;;;5037325;28;20307;-82
2021/01/13 09:20:49;;;;;;;;;;;7.10;99.90;;;;;;5036657;28;19920;-82
2021/01/13 09:23:21;;;;;;;;;;;7.10;99.90;;;;;;5036702;28;20381;-82
2021/01/13 09:25:50;;;;;;;;;;;7.10;99.90;;;;;;5031172;28;19921;-82
2021/01/13 09:28:17;;;;;;;;;;;7.20;99.90;;;;;;5034321;28;19924;-83
2021/01/13 09:30:43;;;;;;;;;;;7.10;99.90;;;;;;5032750;28;19913;-82
2021/01/13 09:33:19;;;;;;;;;;;6.80;99.90;;;;;;5035880;28;19913;-81
2021/01/13 09:35:48;;;;;;;;;;;6.50;99.90;;;;;;5035979;28;20003;-82
2021/01/13 09:38:15;;;;;;;;;;;6.20;99.90;;;;;;5031204;28;19967;-83
2021/01/13 09:40:43;;;;;;;;;;;5.90;99.90;;;;;;5033966;28;19917;-82
2021/01/13 09:43:22;;;;;;;;;;;5.80;99.90;;;;;;5034022;28;19978;-80
2021/01/13 09:45:47;;;;;;;;;;;5.60;99.90;;;;;;5031118;28;19913;-84
2021/01/13 09:48:15;;;;;;;;;;;5.50;99.90;;;;;;5030999;28;19924;-82
2021/01/13 09:50:41;;;;;;;;;;;5.40;99.90;;;;;;5029310;28;19924;-82
2021/01/13 09:53:07;;;;;;;;;;;5.30;99.90;;;;;;5025116;28;19913;-81
2021/01/13 09:55:32;;;;;;;;;;;5.30;99.90;;;;;;5030415;28;19987;-83
2021/01/13 09:58:13;;;;;;;;;;;5.30;99.90;;;;;;5031886;28;19916;-82
2021/01/13 10:00:39;;;;;;;;;;;5.30;99.90;;;;;;5037662;28;19913;-82
2021/01/13 10:03:05;;;;;;;;;;;5.50;99.90;;;;;;5022033;28;19921;-83
2021/01/13 10:05:31;;;;;;;;;;;5.60;99.90;;;;;;5035285;28;19913;-82
2021/01/13 10:07:57;;;;;;;;;;;5.50;99.90;;;;;;5036893;28;19917;-83
2021/01/13 10:10:23;;;;;;;;;;;5.60;99.90;;;;;;5048940;28;19932;-82
2021/01/13 10:12:50;;;;;;;;;;;5.60;99.90;;;;;;5038997;28;19913;-82
2021/01/13 10:15:15;;;;;;;;;;;5.70;99.90;;;;;;5038147;28;20397;-82
2021/01/13 10:17:41;;;;;;;;;;;5.80;99.90;;;;;;5031828;28;19917;-82
2021/01/13 10:20:11;;;;;;;;;;;5.90;99.90;;;;;;5017907;28;19914;-82
2021/01/13 10:22:38;;;;;;;;;;;5.90;99.90;;;;;;5023243;28;19940;-83
2021/01/13 10:25:04;;;;;;;;;;;5.80;99.90;;;;;;5035054;28;19920;-84
2021/01/13 10:27:29;;;;;;;;;;;5.80;99.90;;;;;;5034821;28;19921;-84
2021/01/13 10:29:55;;;;;;;;;;;5.80;99.90;;;;;;5036074;28;20011;-83
2021/01/13 10:32:20;;;;;;;;;;;5.90;99.90;;;;;;5026743;28;19914;-83
2021/01/13 10:34:55;;;;;;;;;;;6.00;99.90;;;;;;5025264;28;19956;-83
2021/01/13 10:37:20;;;;;;;;;;;6.00;99.90;;;;;;5036608;28;19909;-84
2021/01/13 10:39:46;;;;;;;;;;;6.30;99.90;;;;;;5067275;22;20725;-82
2021/01/13 10:42:12;;;;;;;;;;;6.50;99.90;;;;;;5072719;28;19924;-82
2021/01/13 10:44:37;;;;;;;;;;;6.90;99.90;;;;;;5072878;28;19958;-82
2021/01/13 10:47:08;;;;;;;;;;;7.30;99.90;;;;;;5097879;28;19983;-83
2021/01/13 10:49:34;;;;;;;;;;;7.60;99.90;;;;;;5068758;28;20048;-83
2021/01/13 10:52:01;;;;;;;;;;;7.50;99.90;;;;;;5093169;28;19950;-82
2021/01/13 10:54:28;;;;;;;;;;;7.40;99.90;;;;;;5084019;28;20003;-83
2021/01/13 10:56:58;;;;;;;;;;;7.50;99.90;;;;;;5072684;28;19916;-83
2021/01/13 10:59:23;;;;;;;;;;;7.50;99.90;;;;;;5084455;28;19920;-82
2021/01/13 11:01:50;;;;;;;;;;;7.40;99.90;;;;;;5075018;28;19958;-82
2021/01/13 11:04:29;;;;;;;;;;;7.20;99.90;;;;;;5067335;28;19951;-83
2021/01/13 11:06:56;;;;;;;;;;;7.10;99.90;;;;;;5079120;28;20015;-82
2021/01/13 11:09:22;;;;;;;;;;;7.00;99.90;;;;;;5064655;28;19946;-82
2021/01/13 11:11:47;;;;;;;;;;;7.20;99.90;;;;;;5098090;28;20003;-83
2021/01/13 11:14:13;;;;;;;;;;;7.30;99.90;;;;;;5093280;28;19923;-83
2021/01/13 11:16:57;;;;;;;;;;;7.20;99.90;;;;;;5098342;28;19912;-82
2021/01/13 11:19:23;;;;;;;;;;;7.30;99.90;;;;;;5089596;28;19912;-83
2021/01/13 11:21:50;;;;;;;;;;;7.30;99.90;;;;;;5084946;28;19958;-82
2021/01/13 11:24:25;;;;;;;;;;;7.40;99.90;;;;;;5073875;28;20292;-82
2021/01/13 11:26:52;;;;;;;;;;;7.40;99.90;;;;;;5100766;28;19951;-82
2021/01/13 11:29:17;;;;;;;;;;;7.20;99.90;;;;;;5094754;28;19983;-82
2021/01/13 11:31:43;;;;;;;;;;;7.20;99.90;;;;;;5082130;28;19971;-82
2021/01/13 11:34:11;;;;;;;;;;;7.10;99.90;;;;;;5079157;28;19912;-82
2021/01/13 11:36:40;;;;;;;;;;;7.00;99.90;;;;;;5096053;28;19942;-82
2021/01/13 11:39:17;;;;;;;;;;;7.00;99.90;;;;;;5099516;28;19908;-82
2021/01/13 11:42:03;;;;;;;;;;;7.10;99.90;;;;;;5088419;28;19912;-82
2021/01/13 11:44:48;;;;;;;;;;;7.00;99.90;;;;;;5093210;28;20427;-83
2021/01/13 11:47:18;;;;;;;;;;;7.10;99.90;;;;;;5069545;28;19924;-82
2021/01/13 11:49:51;;;;;;;;;;;7.00;99.90;;;;;;5096940;28;19928;-82
2021/01/13 11:52:17;;;;;;;;;;;6.80;99.90;;;;;;5075773;28;19908;-82
2021/01/13 11:54:46;;;;;;;;;;;6.80;99.90;;;;;;5097954;28;19947;-82
2021/01/13 11:57:19;;;;;;;;;;;6.80;99.90;;;;;;5086988;28;19912;-82
2021/01/13 11:59:44;;;;;;;;;;;6.80;99.90;;;;;;5090522;28;19911;-82
2021/01/13 12:02:17;;;;;;;;;;;6.80;99.90;;;;;;5098185;28;19912;-82
2021/01/13 12:04:43;;;;;;;;;;;6.90;99.90;;;;;;5097384;28;19904;-82
2021/01/13 12:07:09;;;;;;;;;;;6.90;99.90;;;;;;5086640;28;19923;-81
2021/01/13 12:09:36;;;;;;;;;;;7.30;99.90;;;;;;5075684;28;19908;-82
2021/01/13 12:12:02;;;;;;;;;;;7.30;99.90;;;;;;5081905;28;19912;-82
2021/01/13 12:14:36;;;;;;;;;;;7.30;99.90;;;;;;5074292;28;19943;-82
2021/01/13 12:17:02;;;;;;;;;;;7.60;99.90;;;;;;5074497;28;19917;-82
2021/01/13 12:19:34;;;;;;;;;;;7.50;99.90;;;;;;5074705;28;19965;-82
2021/01/13 12:21:59;;;;;;;;;;;7.50;99.90;;;;;;5075111;28;19973;-82
2021/01/13 12:24:35;;;;;;;;;;;7.40;99.90;;;;;;5074611;28;20006;-82
2021/01/13 12:27:18;;;;;;;;;;;7.40;99.90;;;;;;5058857;28;19927;-82
2021/01/13 12:29:43;;;;;;;;;;;7.40;99.90;;;;;;5074426;28;19920;-81
2021/01/13 12:32:09;;;;;;;;;;;7.50;99.90;;;;;;5076054;28;20323;-83
2021/01/13 12:34:34;;;;;;;;;;;7.50;99.90;;;;;;5085524;28;20013;-82
2021/01/13 12:37:04;;;;;;;;;;;7.70;99.90;;;;;;5087841;28;19916;-82
2021/01/13 12:39:33;;;;;;;;;;;8.00;99.90;;;;;;5091800;28;19999;-82
2021/01/13 12:42:00;;;;;;;;;;;8.20;99.90;;;;;;5089978;28;19916;-82
2021/01/13 12:44:26;;;;;;;;;;;8.20;99.90;;;;;;5091616;28;20364;-82
2021/01/13 12:47:03;;;;;;;;;;;8.20;99.90;;;;;;5098251;28;19916;-81
2021/01/13 12:49:28;;;;;;;;;;;8.20;99.90;;;;;;5074700;28;20014;-82
2021/01/13 12:51:55;;;;;;;;;;;8.10;99.90;;;;;;5071925;28;19959;-83
2021/01/13 12:54:21;;;;;;;;;;;8.30;99.90;;;;;;5082960;28;19976;-83
2021/01/13 12:56:46;;;;;;;;;;;8.70;99.90;;;;;;5098235;28;19991;-82
2021/01/13 12:59:12;;;;;;;;;;;8.90;99.90;;;;;;5068599;28;20273;-83
2021/01/13 13:01:38;;;;;;;;;;;8.80;99.90;;;;;;5070159;28;19919;-82
2021/01/13 13:04:04;;;;;;;;;;;8.70;99.90;;;;;;5080494;28;19920;-83
2021/01/13 13:06:31;;;;;;;;;;;8.60;99.90;;;;;;5100332;28;19920;-82
2021/01/13 13:08:57;;;;;;;;;;;8.40;99.90;;;;;;5093757;28;19918;-82
2021/01/13 13:11:24;;;;;;;;;;;8.30;99.90;;;;;;5081425;28;20626;-83
2021/01/13 13:13:50;;;;;;;;;;;8.30;99.90;;;;;;5100428;28;20011;-83
2021/01/13 13:16:15;;;;;;;;;;;8.80;99.90;;;;;;5095219;28;20367;-83
2021/01/13 13:18:41;;;;;;;;;;;9.40;99.90;;;;;;5082809;28;19923;-83
2021/01/13 13:21:10;;;;;;;;;;;10.00;99.90;;;;;;5097365;28;19913;-83
2021/01/13 13:23:36;;;;;;;;;;;10.60;99.90;;;;;;5092925;28;19916;-83
2021/01/13 13:26:02;;;;;;;;;;;10.70;99.90;;;;;;5087773;28;19912;-83
2021/01/13 13:28:27;;;;;;;;;;;10.40;99.90;;;;;;5097212;28;20465;-84
2021/01/13 13:30:53;;;;;;;;;;;10.40;99.90;;;;;;5101439;28;19916;-83
2021/01/13 13:33:18;;;;;;;;;;;10.20;99.90;;;;;;5104497;28;19912;-82
2021/01/13 13:35:43;;;;;;;;;;;9.80;99.90;;;;;;5101525;28;19919;-83
2021/01/13 13:38:09;;;;;;;;;;;9.50;99.90;;;;;;5104047;28;19908;-83
2021/01/13 13:40:34;;;;;;;;;;;9.30;99.90;;;;;;5096323;28;19955;-82
2021/01/13 13:43:00;;;;;;;;;;;9.10;99.90;;;;;;5075756;28;20303;-83
2021/01/13 13:45:25;;;;;;;;;;;8.80;99.90;;;;;;5087179;28;20378;-82
2021/01/13 13:47:50;;;;;;;;;;;8.60;99.90;;;;;;5093701;28;19924;-82
2021/01/13 13:50:16;;;;;;;;;;;8.40;99.90;;;;;;5092737;28;19916;-82
2021/01/13 13:52:41;;;;;;;;;;;8.30;99.90;;;;;;5088000;28;19912;-82
2021/01/13 13:55:07;;;;;;;;;;;8.10;99.90;;;;;;5076182;28;20410;-82
2021/01/13 13:57:33;;;;;;;;;;;8.00;99.90;;;;;;5100505;28;20318;-82
2021/01/13 13:59:58;;;;;;;;;;;7.80;99.90;;;;;;5094825;28;19924;-82
2021/01/13 14:02:23;;;;;;;;;;;7.60;99.90;;;;;;5080694;28;19940;-82
2021/01/13 14:04:49;;;;;;;;;;;7.50;99.90;;;;;;5087963;28;19953;-82
2021/01/13 14:07:14;;;;;;;;;;;7.50;99.90;;;;;;5089422;28;19924;-82
2021/01/13 14:09:40;;;;;;;;;;;7.60;99.90;;;;;;5079952;28;19912;-81
2021/01/13 14:12:05;;;;;;;;;;;7.70;99.90;;;;;;5080443;28;19912;-81
2021/01/13 14:14:31;;;;;;;;;;;7.80;99.90;;;;;;5079759;28;19999;-81
2021/01/13 14:16:56;;;;;;;;;;;7.70;99.90;;;;;;5086598;28;20292;-82
2021/01/13 14:19:22;;;;;;;;;;;7.50;99.90;;;;;;5077401;28;20421;-82
2021/01/13 14:21:49;;;;;;;;;;;7.30;99.90;;;;;;5081953;28;19912;-82
2021/01/13 14:24:15;;;;;;;;;;;7.20;99.90;;;;;;5077834;28;19920;-82
2021/01/13 14:26:40;;;;;;;;;;;7.00;99.90;;;;;;5080158;28;19920;-82
2021/01/13 14:29:05;;;;;;;;;;;6.90;99.90;;;;;;5066769;28;19966;-81
2021/01/13 14:31:35;;;;;;;;;;;6.80;99.90;;;;;;5082470;28;19912;-81
2021/01/13 14:34:00;;;;;;;;;;;6.80;99.90;;;;;;5080244;28;20315;-82
2021/01/13 14:36:26;;;;;;;;;;;6.80;99.90;;;;;;5059707;28;19955;-82
2021/01/13 14:38:51;;;;;;;;;;;6.70;99.90;;;;;;5078564;28;19913;-82